YPPH/PER METAR and TAF weather

Enter ICAO airport designator
Station Type Date Time Source
YPPH METAR 2022/12/04 11:30 UTC NOAA

YPPH 041130Z 15017KT CAVOK 24/11 Q1011


Station Type Date Time Source
YPPH Decoded METAR 2022/12/04 11:30 UTC NOAA

Belmont Perth Airport , Australia (YPPH) 31-56S 115-57E 29M
Dec 04, 2022 - 06:30 AM EST / 2022.12.04 1130 UTC
Wind: from the SSE (150 degrees) at 20 MPH (17 KT):0
Visibility: greater than 7 mile(s):0
Temperature: 75 F (24 C)
Dew Point: 51 F (11 C)
Relative Humidity: 43%
Pressure (altimeter): 29.85 in. Hg (1011 hPa)
ob: YPPH 041130Z 15017KT CAVOK 24/11 Q1011
cycle: 11

Station Type Date Time Source
YPPH TAF 2022/12/04 12:36 UTC NOAA

TAF YPPH 041106Z 0412/0518 15015G25KT CAVOK
FM041400 15008KT CAVOK
FM050400 24012KT CAVOK
FM051500 16008KT CAVOK

Example: see airport list